sensor_id;sensor_type;location;lat;lon;timestamp;P1;durP1;ratioP1;P2;durP2;ratioP2
32533;SDS011;18973;48.580;8.912;2022-12-05T00:00:46;5.80;;;4.22;;
32533;SDS011;18973;48.580;8.912;2022-12-05T00:03:12;5.47;;;4.13;;
32533;SDS011;18973;48.580;8.912;2022-12-05T00:05:40;6.75;;;3.80;;
32533;SDS011;18973;48.580;8.912;2022-12-05T00:08:06;3.95;;;3.65;;
32533;SDS011;18973;48.580;8.912;2022-12-05T00:10:35;4.35;;;3.95;;
32533;SDS011;18973;48.580;8.912;2022-12-05T00:13:02;6.82;;;4.97;;
32533;SDS011;18973;48.580;8.912;2022-12-05T00:15:28;4.45;;;4.05;;
32533;SDS011;18973;48.580;8.912;2022-12-05T00:17:54;6.32;;;4.45;;
32533;SDS011;18973;48.580;8.912;2022-12-05T00:20:19;7.03;;;4.50;;
32533;SDS011;18973;48.580;8.912;2022-12-05T00:22:45;4.82;;;4.35;;
32533;SDS011;18973;48.580;8.912;2022-12-05T00:25:11;6.05;;;4.18;;
32533;SDS011;18973;48.580;8.912;2022-12-05T00:27:38;4.82;;;4.15;;
32533;SDS011;18973;48.580;8.912;2022-12-05T00:30:04;3.67;;;3.25;;
32533;SDS011;18973;48.580;8.912;2022-12-05T00:32:32;5.60;;;4.10;;
32533;SDS011;18973;48.580;8.912;2022-12-05T00:34:58;5.28;;;4.75;;
32533;SDS011;18973;48.580;8.912;2022-12-05T00:37:23;4.57;;;3.65;;
32533;SDS011;18973;48.580;8.912;2022-12-05T00:39:49;4.05;;;3.67;;
32533;SDS011;18973;48.580;8.912;2022-12-05T00:42:15;3.85;;;3.53;;
32533;SDS011;18973;48.580;8.912;2022-12-05T00:44:40;5.80;;;4.55;;
32533;SDS011;18973;48.580;8.912;2022-12-05T00:47:06;4.00;;;3.65;;
32533;SDS011;18973;48.580;8.912;2022-12-05T00:49:32;3.85;;;3.33;;
32533;SDS011;18973;48.580;8.912;2022-12-05T00:51:58;6.53;;;4.13;;
32533;SDS011;18973;48.580;8.912;2022-12-05T00:54:24;4.25;;;3.95;;
32533;SDS011;18973;48.580;8.912;2022-12-05T00:56:49;5.93;;;3.88;;
32533;SDS011;18973;48.580;8.912;2022-12-05T00:59:20;5.53;;;3.85;;
32533;SDS011;18973;48.580;8.912;2022-12-05T01:01:47;5.13;;;3.90;;
32533;SDS011;18973;48.580;8.912;2022-12-05T01:04:15;6.50;;;3.83;;
32533;SDS011;18973;48.580;8.912;2022-12-05T01:06:46;5.55;;;4.53;;
32533;SDS011;18973;48.580;8.912;2022-12-05T01:09:13;3.90;;;3.60;;
32533;SDS011;18973;48.580;8.912;2022-12-05T01:11:40;5.85;;;3.85;;
32533;SDS011;18973;48.580;8.912;2022-12-05T01:14:07;4.38;;;3.97;;
32533;SDS011;18973;48.580;8.912;2022-12-05T01:16:35;4.65;;;4.30;;
32533;SDS011;18973;48.580;8.912;2022-12-05T01:19:04;6.47;;;4.05;;
32533;SDS011;18973;48.580;8.912;2022-12-05T01:21:31;7.75;;;3.70;;
32533;SDS011;18973;48.580;8.912;2022-12-05T01:23:57;4.63;;;3.78;;
32533;SDS011;18973;48.580;8.912;2022-12-05T01:26:23;4.18;;;3.72;;
32533;SDS011;18973;48.580;8.912;2022-12-05T01:28:49;4.43;;;3.75;;
32533;SDS011;18973;48.580;8.912;2022-12-05T01:31:26;3.33;;;3.13;;
32533;SDS011;18973;48.580;8.912;2022-12-05T01:33:54;3.03;;;2.75;;
32533;SDS011;18973;48.580;8.912;2022-12-05T01:36:21;5.65;;;4.95;;
32533;SDS011;18973;48.580;8.912;2022-12-05T01:38:48;4.15;;;3.75;;
32533;SDS011;18973;48.580;8.912;2022-12-05T01:41:15;5.05;;;4.57;;
32533;SDS011;18973;48.580;8.912;2022-12-05T01:46:27;6.47;;;4.95;;
32533;SDS011;18973;48.580;8.912;2022-12-05T01:48:57;6.72;;;5.05;;
32533;SDS011;18973;48.580;8.912;2022-12-05T01:51:30;8.63;;;4.97;;
32533;SDS011;18973;48.580;8.912;2022-12-05T01:54:02;8.27;;;5.07;;
32533;SDS011;18973;48.580;8.912;2022-12-05T01:56:30;8.30;;;5.20;;
32533;SDS011;18973;48.580;8.912;2022-12-05T01:58:57;4.68;;;4.22;;
32533;SDS011;18973;48.580;8.912;2022-12-05T02:01:24;4.45;;;4.07;;
32533;SDS011;18973;48.580;8.912;2022-12-05T02:03:50;5.43;;;4.40;;
32533;SDS011;18973;48.580;8.912;2022-12-05T02:06:19;5.03;;;4.38;;
32533;SDS011;18973;48.580;8.912;2022-12-05T02:08:46;7.35;;;4.90;;
32533;SDS011;18973;48.580;8.912;2022-12-05T02:11:13;9.48;;;5.35;;
32533;SDS011;18973;48.580;8.912;2022-12-05T02:13:46;6.05;;;4.47;;
32533;SDS011;18973;48.580;8.912;2022-12-05T02:25:04;5.88;;;5.25;;
32533;SDS011;18973;48.580;8.912;2022-12-05T02:30:49;5.72;;;3.90;;
32533;SDS011;18973;48.580;8.912;2022-12-05T02:36:55;6.70;;;4.95;;
32533;SDS011;18973;48.580;8.912;2022-12-05T02:42:27;5.28;;;4.28;;
32533;SDS011;18973;48.580;8.912;2022-12-05T02:44:58;8.90;;;4.63;;
32533;SDS011;18973;48.580;8.912;2022-12-05T02:47:34;9.95;;;4.90;;
32533;SDS011;18973;48.580;8.912;2022-12-05T02:50:04;4.95;;;4.25;;
32533;SDS011;18973;48.580;8.912;2022-12-05T02:52:32;5.28;;;4.45;;
32533;SDS011;18973;48.580;8.912;2022-12-05T02:54:59;5.15;;;4.63;;
32533;SDS011;18973;48.580;8.912;2022-12-05T02:57:27;6.72;;;5.10;;
32533;SDS011;18973;48.580;8.912;2022-12-05T02:59:53;4.90;;;4.20;;
32533;SDS011;18973;48.580;8.912;2022-12-05T03:02:26;5.65;;;4.53;;
32533;SDS011;18973;48.580;8.912;2022-12-05T03:04:57;9.52;;;5.95;;
32533;SDS011;18973;48.580;8.912;2022-12-05T03:07:38;6.72;;;5.25;;
32533;SDS011;18973;48.580;8.912;2022-12-05T03:10:07;4.22;;;3.83;;
32533;SDS011;18973;48.580;8.912;2022-12-05T03:12:35;5.88;;;4.28;;
32533;SDS011;18973;48.580;8.912;2022-12-05T03:15:11;5.25;;;3.50;;
32533;SDS011;18973;48.580;8.912;2022-12-05T03:17:40;7.10;;;3.85;;
32533;SDS011;18973;48.580;8.912;2022-12-05T03:20:34;4.77;;;4.33;;
32533;SDS011;18973;48.580;8.912;2022-12-05T03:23:15;8.23;;;4.57;;
32533;SDS011;18973;48.580;8.912;2022-12-05T03:26:08;4.03;;;3.60;;
32533;SDS011;18973;48.580;8.912;2022-12-05T03:37:11;5.65;;;4.03;;
32533;SDS011;18973;48.580;8.912;2022-12-05T03:39:44;5.47;;;4.22;;
32533;SDS011;18973;48.580;8.912;2022-12-05T03:42:18;5.05;;;4.30;;
32533;SDS011;18973;48.580;8.912;2022-12-05T03:44:56;5.07;;;4.57;;
32533;SDS011;18973;48.580;8.912;2022-12-05T03:47:32;4.10;;;3.63;;
32533;SDS011;18973;48.580;8.912;2022-12-05T03:50:08;3.35;;;3.13;;
32533;SDS011;18973;48.580;8.912;2022-12-05T03:53:02;4.57;;;3.47;;
32533;SDS011;18973;48.580;8.912;2022-12-05T03:55:38;3.80;;;3.50;;
32533;SDS011;18973;48.580;8.912;2022-12-05T03:58:08;5.53;;;5.00;;
32533;SDS011;18973;48.580;8.912;2022-12-05T04:00:40;4.63;;;3.60;;
32533;SDS011;18973;48.580;8.912;2022-12-05T04:03:13;4.07;;;3.78;;
32533;SDS011;18973;48.580;8.912;2022-12-05T04:05:51;4.57;;;4.18;;
32533;SDS011;18973;48.580;8.912;2022-12-05T04:08:27;3.88;;;3.53;;
32533;SDS011;18973;48.580;8.912;2022-12-05T04:11:00;3.78;;;3.40;;
32533;SDS011;18973;48.580;8.912;2022-12-05T04:13:36;4.15;;;3.35;;
32533;SDS011;18973;48.580;8.912;2022-12-05T04:16:18;4.03;;;3.65;;
32533;SDS011;18973;48.580;8.912;2022-12-05T04:21:43;5.63;;;4.13;;
32533;SDS011;18973;48.580;8.912;2022-12-05T04:24:13;4.30;;;3.80;;
32533;SDS011;18973;48.580;8.912;2022-12-05T04:32:47;4.28;;;3.88;;
32533;SDS011;18973;48.580;8.912;2022-12-05T04:35:28;5.68;;;4.85;;
32533;SDS011;18973;48.580;8.912;2022-12-05T04:38:03;3.50;;;3.00;;
32533;SDS011;18973;48.580;8.912;2022-12-05T04:40:40;5.35;;;3.75;;
32533;SDS011;18973;48.580;8.912;2022-12-05T04:43:10;4.45;;;3.63;;
32533;SDS011;18973;48.580;8.912;2022-12-05T04:45:38;5.57;;;4.32;;
32533;SDS011;18973;48.580;8.912;2022-12-05T04:48:06;3.85;;;3.40;;
32533;SDS011;18973;48.580;8.912;2022-12-05T04:50:37;4.53;;;3.95;;
32533;SDS011;18973;48.580;8.912;2022-12-05T04:53:04;3.63;;;3.33;;
32533;SDS011;18973;48.580;8.912;2022-12-05T04:55:31;5.53;;;3.92;;
32533;SDS011;18973;48.580;8.912;2022-12-05T04:58:05;3.95;;;3.58;;
32533;SDS011;18973;48.580;8.912;2022-12-05T05:00:49;5.13;;;4.32;;
32533;SDS011;18973;48.580;8.912;2022-12-05T05:03:26;6.95;;;3.75;;
32533;SDS011;18973;48.580;8.912;2022-12-05T05:05:59;3.95;;;3.65;;
32533;SDS011;18973;48.580;8.912;2022-12-05T05:08:26;5.82;;;3.55;;
32533;SDS011;18973;48.580;8.912;2022-12-05T05:11:15;2.58;;;2.42;;
32533;SDS011;18973;48.580;8.912;2022-12-05T05:13:43;4.35;;;3.65;;
32533;SDS011;18973;48.580;8.912;2022-12-05T05:16:16;3.97;;;3.65;;
32533;SDS011;18973;48.580;8.912;2022-12-05T05:18:45;3.17;;;2.95;;
32533;SDS011;18973;48.580;8.912;2022-12-05T05:21:18;4.35;;;3.95;;
32533;SDS011;18973;48.580;8.912;2022-12-05T05:23:51;5.18;;;4.07;;
32533;SDS011;18973;48.580;8.912;2022-12-05T05:26:17;7.25;;;5.70;;
32533;SDS011;18973;48.580;8.912;2022-12-05T05:28:44;4.80;;;4.35;;
32533;SDS011;18973;48.580;8.912;2022-12-05T05:31:10;5.43;;;4.20;;
32533;SDS011;18973;48.580;8.912;2022-12-05T05:33:37;4.80;;;4.50;;
32533;SDS011;18973;48.580;8.912;2022-12-05T05:36:05;3.72;;;3.35;;
32533;SDS011;18973;48.580;8.912;2022-12-05T05:38:35;14.93;;;6.68;;
32533;SDS011;18973;48.580;8.912;2022-12-05T05:41:03;41.05;;;14.88;;
32533;SDS011;18973;48.580;8.912;2022-12-05T05:43:29;20.10;;;10.93;;
32533;SDS011;18973;48.580;8.912;2022-12-05T05:45:55;11.75;;;7.20;;
32533;SDS011;18973;48.580;8.912;2022-12-05T05:48:21;4.80;;;4.15;;
32533;SDS011;18973;48.580;8.912;2022-12-05T05:50:47;8.35;;;5.10;;
32533;SDS011;18973;48.580;8.912;2022-12-05T05:53:12;5.40;;;4.47;;
32533;SDS011;18973;48.580;8.912;2022-12-05T05:55:38;5.68;;;4.63;;
32533;SDS011;18973;48.580;8.912;2022-12-05T05:58:05;3.70;;;3.40;;
32533;SDS011;18973;48.580;8.912;2022-12-05T06:00:31;3.92;;;3.50;;
32533;SDS011;18973;48.580;8.912;2022-12-05T06:02:56;19.85;;;11.07;;
32533;SDS011;18973;48.580;8.912;2022-12-05T06:05:22;5.20;;;4.72;;
32533;SDS011;18973;48.580;8.912;2022-12-05T06:07:48;7.18;;;6.28;;
32533;SDS011;18973;48.580;8.912;2022-12-05T06:10:16;3.78;;;3.47;;
32533;SDS011;18973;48.580;8.912;2022-12-05T06:12:41;3.80;;;3.42;;
32533;SDS011;18973;48.580;8.912;2022-12-05T06:15:07;3.83;;;3.53;;
32533;SDS011;18973;48.580;8.912;2022-12-05T06:17:33;3.33;;;3.08;;
32533;SDS011;18973;48.580;8.912;2022-12-05T06:19:59;7.00;;;3.28;;
32533;SDS011;18973;48.580;8.912;2022-12-05T06:22:25;3.92;;;3.47;;
32533;SDS011;18973;48.580;8.912;2022-12-05T06:24:50;4.97;;;3.35;;
32533;SDS011;18973;48.580;8.912;2022-12-05T06:27:16;6.57;;;3.05;;
32533;SDS011;18973;48.580;8.912;2022-12-05T06:29:42;6.18;;;4.93;;
32533;SDS011;18973;48.580;8.912;2022-12-05T06:32:07;4.35;;;3.65;;
32533;SDS011;18973;48.580;8.912;2022-12-05T06:34:33;4.78;;;3.30;;
32533;SDS011;18973;48.580;8.912;2022-12-05T06:36:59;4.22;;;3.88;;
32533;SDS011;18973;48.580;8.912;2022-12-05T06:39:25;11.30;;;6.35;;
32533;SDS011;18973;48.580;8.912;2022-12-05T06:41:52;4.25;;;3.72;;
32533;SDS011;18973;48.580;8.912;2022-12-05T06:44:17;4.07;;;3.80;;
32533;SDS011;18973;48.580;8.912;2022-12-05T06:46:44;4.50;;;4.07;;
32533;SDS011;18973;48.580;8.912;2022-12-05T06:49:10;4.07;;;3.78;;
32533;SDS011;18973;48.580;8.912;2022-12-05T06:51:35;4.20;;;3.90;;
32533;SDS011;18973;48.580;8.912;2022-12-05T06:54:01;4.93;;;3.92;;
32533;SDS011;18973;48.580;8.912;2022-12-05T06:56:27;3.65;;;3.35;;
32533;SDS011;18973;48.580;8.912;2022-12-05T06:58:54;5.20;;;4.75;;
32533;SDS011;18973;48.580;8.912;2022-12-05T07:01:21;4.38;;;3.83;;
32533;SDS011;18973;48.580;8.912;2022-12-05T07:04:13;3.85;;;3.42;;
32533;SDS011;18973;48.580;8.912;2022-12-05T07:06:44;5.65;;;3.45;;
32533;SDS011;18973;48.580;8.912;2022-12-05T07:09:13;4.50;;;3.20;;
32533;SDS011;18973;48.580;8.912;2022-12-05T07:11:39;3.70;;;3.40;;
32533;SDS011;18973;48.580;8.912;2022-12-05T07:14:05;3.72;;;3.42;;
32533;SDS011;18973;48.580;8.912;2022-12-05T07:16:33;5.47;;;4.30;;
32533;SDS011;18973;48.580;8.912;2022-12-05T07:18:59;10.90;;;7.20;;
32533;SDS011;18973;48.580;8.912;2022-12-05T07:21:25;8.70;;;6.05;;
32533;SDS011;18973;48.580;8.912;2022-12-05T07:23:51;15.25;;;8.93;;
32533;SDS011;18973;48.580;8.912;2022-12-05T07:26:21;10.65;;;7.25;;
32533;SDS011;18973;48.580;8.912;2022-12-05T07:28:48;7.43;;;5.78;;
32533;SDS011;18973;48.580;8.912;2022-12-05T07:31:16;10.32;;;6.30;;
32533;SDS011;18973;48.580;8.912;2022-12-05T07:33:46;6.43;;;5.63;;
32533;SDS011;18973;48.580;8.912;2022-12-05T07:36:14;6.45;;;5.18;;
32533;SDS011;18973;48.580;8.912;2022-12-05T07:38:43;4.32;;;3.58;;
32533;SDS011;18973;48.580;8.912;2022-12-05T07:41:13;4.70;;;4.25;;
32533;SDS011;18973;48.580;8.912;2022-12-05T07:43:44;5.82;;;3.85;;
32533;SDS011;18973;48.580;8.912;2022-12-05T07:46:10;7.70;;;3.45;;
32533;SDS011;18973;48.580;8.912;2022-12-05T07:48:36;4.25;;;3.90;;
32533;SDS011;18973;48.580;8.912;2022-12-05T07:51:02;7.38;;;4.45;;
32533;SDS011;18973;48.580;8.912;2022-12-05T07:53:29;9.13;;;5.68;;
32533;SDS011;18973;48.580;8.912;2022-12-05T07:56:00;3.60;;;3.30;;
32533;SDS011;18973;48.580;8.912;2022-12-05T07:58:27;4.60;;;4.20;;
32533;SDS011;18973;48.580;8.912;2022-12-05T08:00:53;17.83;;;9.75;;
32533;SDS011;18973;48.580;8.912;2022-12-05T08:03:19;24.23;;;13.43;;
32533;SDS011;18973;48.580;8.912;2022-12-05T08:05:45;27.73;;;14.05;;
32533;SDS011;18973;48.580;8.912;2022-12-05T08:08:11;6.40;;;4.60;;
32533;SDS011;18973;48.580;8.912;2022-12-05T08:10:36;9.27;;;5.03;;
32533;SDS011;18973;48.580;8.912;2022-12-05T08:13:02;5.10;;;4.45;;
32533;SDS011;18973;48.580;8.912;2022-12-05T08:15:28;5.82;;;4.97;;
32533;SDS011;18973;48.580;8.912;2022-12-05T08:17:54;7.70;;;4.57;;
32533;SDS011;18973;48.580;8.912;2022-12-05T08:20:19;5.32;;;4.32;;
32533;SDS011;18973;48.580;8.912;2022-12-05T08:22:45;5.25;;;4.35;;
32533;SDS011;18973;48.580;8.912;2022-12-05T08:25:11;3.42;;;3.17;;
32533;SDS011;18973;48.580;8.912;2022-12-05T08:27:36;4.53;;;4.10;;
32533;SDS011;18973;48.580;8.912;2022-12-05T08:30:02;4.00;;;3.47;;
32533;SDS011;18973;48.580;8.912;2022-12-05T08:32:29;3.88;;;3.17;;
32533;SDS011;18973;48.580;8.912;2022-12-05T08:34:54;5.75;;;4.18;;
32533;SDS011;18973;48.580;8.912;2022-12-05T08:37:20;3.25;;;3.00;;
32533;SDS011;18973;48.580;8.912;2022-12-05T08:39:46;4.60;;;3.38;;
32533;SDS011;18973;48.580;8.912;2022-12-05T08:42:12;3.40;;;3.10;;
32533;SDS011;18973;48.580;8.912;2022-12-05T08:44:38;3.90;;;3.60;;
32533;SDS011;18973;48.580;8.912;2022-12-05T08:47:04;4.03;;;3.67;;
32533;SDS011;18973;48.580;8.912;2022-12-05T08:49:29;4.57;;;3.33;;
32533;SDS011;18973;48.580;8.912;2022-12-05T08:51:55;4.05;;;3.42;;
32533;SDS011;18973;48.580;8.912;2022-12-05T08:54:21;2.65;;;2.55;;
32533;SDS011;18973;48.580;8.912;2022-12-05T08:56:49;4.72;;;4.32;;
32533;SDS011;18973;48.580;8.912;2022-12-05T08:59:15;5.18;;;3.00;;
32533;SDS011;18973;48.580;8.912;2022-12-05T09:01:41;5.57;;;3.83;;
32533;SDS011;18973;48.580;8.912;2022-12-05T09:04:07;4.10;;;3.58;;
32533;SDS011;18973;48.580;8.912;2022-12-05T09:06:33;3.17;;;2.88;;
32533;SDS011;18973;48.580;8.912;2022-12-05T09:09:01;5.93;;;3.63;;
32533;SDS011;18973;48.580;8.912;2022-12-05T09:11:30;3.28;;;2.95;;
32533;SDS011;18973;48.580;8.912;2022-12-05T09:13:59;3.20;;;2.20;;
32533;SDS011;18973;48.580;8.912;2022-12-05T09:16:30;3.80;;;2.72;;
32533;SDS011;18973;48.580;8.912;2022-12-05T09:18:59;3.28;;;2.75;;
32533;SDS011;18973;48.580;8.912;2022-12-05T09:21:26;3.53;;;3.22;;
32533;SDS011;18973;48.580;8.912;2022-12-05T09:23:53;2.92;;;2.72;;
32533;SDS011;18973;48.580;8.912;2022-12-05T09:26:21;3.58;;;2.97;;
32533;SDS011;18973;48.580;8.912;2022-12-05T09:28:48;3.42;;;3.13;;
32533;SDS011;18973;48.580;8.912;2022-12-05T09:31:15;2.72;;;2.55;;
32533;SDS011;18973;48.580;8.912;2022-12-05T09:33:43;2.70;;;2.40;;
32533;SDS011;18973;48.580;8.912;2022-12-05T09:36:13;3.70;;;3.00;;
32533;SDS011;18973;48.580;8.912;2022-12-05T09:38:41;3.40;;;3.00;;
32533;SDS011;18973;48.580;8.912;2022-12-05T09:43:42;4.35;;;2.80;;
32533;SDS011;18973;48.580;8.912;2022-12-05T09:46:19;5.10;;;3.58;;
32533;SDS011;18973;48.580;8.912;2022-12-05T09:48:53;3.70;;;2.88;;
32533;SDS011;18973;48.580;8.912;2022-12-05T09:51:22;3.28;;;2.83;;
32533;SDS011;18973;48.580;8.912;2022-12-05T09:53:48;3.85;;;3.45;;
32533;SDS011;18973;48.580;8.912;2022-12-05T09:58:55;3.33;;;2.97;;
32533;SDS011;18973;48.580;8.912;2022-12-05T10:01:26;3.90;;;3.67;;
32533;SDS011;18973;48.580;8.912;2022-12-05T10:10:20;5.38;;;3.65;;
32533;SDS011;18973;48.580;8.912;2022-12-05T10:15:44;2.58;;;2.38;;
32533;SDS011;18973;48.580;8.912;2022-12-05T10:18:29;2.92;;;2.80;;
32533;SDS011;18973;48.580;8.912;2022-12-05T10:23:50;5.68;;;2.60;;
32533;SDS011;18973;48.580;8.912;2022-12-05T10:26:45;3.22;;;2.75;;
32533;SDS011;18973;48.580;8.912;2022-12-05T10:29:25;4.45;;;3.30;;
32533;SDS011;18973;48.580;8.912;2022-12-05T10:34:42;4.15;;;3.13;;
32533;SDS011;18973;48.580;8.912;2022-12-05T10:37:16;2.85;;;2.60;;
32533;SDS011;18973;48.580;8.912;2022-12-05T10:42:15;3.17;;;2.90;;
32533;SDS011;18973;48.580;8.912;2022-12-05T10:44:54;3.15;;;2.88;;
32533;SDS011;18973;48.580;8.912;2022-12-05T10:47:26;3.47;;;2.90;;
32533;SDS011;18973;48.580;8.912;2022-12-05T10:49:55;4.30;;;2.90;;
32533;SDS011;18973;48.580;8.912;2022-12-05T10:52:24;2.58;;;2.03;;
32533;SDS011;18973;48.580;8.912;2022-12-05T10:54:57;2.70;;;2.35;;
32533;SDS011;18973;48.580;8.912;2022-12-05T10:57:28;2.88;;;2.42;;
32533;SDS011;18973;48.580;8.912;2022-12-05T10:59:54;2.42;;;1.95;;
32533;SDS011;18973;48.580;8.912;2022-12-05T11:02:22;2.88;;;2.60;;
32533;SDS011;18973;48.580;8.912;2022-12-05T11:04:50;2.40;;;2.25;;
32533;SDS011;18973;48.580;8.912;2022-12-05T11:07:24;2.40;;;2.20;;
32533;SDS011;18973;48.580;8.912;2022-12-05T11:09:55;2.10;;;1.88;;
32533;SDS011;18973;48.580;8.912;2022-12-05T11:17:38;3.60;;;3.30;;
32533;SDS011;18973;48.580;8.912;2022-12-05T11:22:42;2.53;;;2.33;;
32533;SDS011;18973;48.580;8.912;2022-12-05T11:28:43;2.85;;;2.65;;
32533;SDS011;18973;48.580;8.912;2022-12-05T11:30:58;2.35;;;2.17;;
32533;SDS011;18973;48.580;8.912;2022-12-05T11:33:31;2.97;;;2.40;;
32533;SDS011;18973;48.580;8.912;2022-12-05T11:36:03;3.15;;;2.65;;
32533;SDS011;18973;48.580;8.912;2022-12-05T11:38:33;4.05;;;2.53;;
32533;SDS011;18973;48.580;8.912;2022-12-05T11:41:07;2.95;;;2.75;;
32533;SDS011;18973;48.580;8.912;2022-12-05T11:47:02;2.45;;;2.25;;
32533;SDS011;18973;48.580;8.912;2022-12-05T11:49:54;2.25;;;2.05;;
32533;SDS011;18973;48.580;8.912;2022-12-05T11:57:53;2.67;;;2.47;;
32533;SDS011;18973;48.580;8.912;2022-12-05T12:08:26;3.60;;;2.03;;
32533;SDS011;18973;48.580;8.912;2022-12-05T12:11:16;2.45;;;2.22;;
32533;SDS011;18973;48.580;8.912;2022-12-05T12:17:22;3.72;;;2.78;;
32533;SDS011;18973;48.580;8.912;2022-12-05T12:34:08;3.05;;;2.65;;
32533;SDS011;18973;48.580;8.912;2022-12-05T12:36:30;1.65;;;1.55;;
32533;SDS011;18973;48.580;8.912;2022-12-05T12:42:23;2.15;;;2.05;;
32533;SDS011;18973;48.580;8.912;2022-12-05T12:50:23;1.83;;;1.73;;
32533;SDS011;18973;48.580;8.912;2022-12-05T12:59:13;3.08;;;1.85;;
32533;SDS011;18973;48.580;8.912;2022-12-05T13:01:57;2.90;;;2.20;;
32533;SDS011;18973;48.580;8.912;2022-12-05T13:04:27;1.75;;;1.65;;
32533;SDS011;18973;48.580;8.912;2022-12-05T13:07:41;2.10;;;1.42;;
32533;SDS011;18973;48.580;8.912;2022-12-05T13:09:53;2.00;;;1.70;;
32533;SDS011;18973;48.580;8.912;2022-12-05T13:12:33;1.83;;;1.73;;
32533;SDS011;18973;48.580;8.912;2022-12-05T13:15:04;2.17;;;1.95;;
32533;SDS011;18973;48.580;8.912;2022-12-05T13:17:35;2.08;;;1.70;;
32533;SDS011;18973;48.580;8.912;2022-12-05T13:20:05;1.70;;;1.60;;
32533;SDS011;18973;48.580;8.912;2022-12-05T13:22:42;1.77;;;1.60;;
32533;SDS011;18973;48.580;8.912;2022-12-05T13:25:13;1.90;;;1.80;;
32533;SDS011;18973;48.580;8.912;2022-12-05T13:27:44;9.07;;;3.25;;
32533;SDS011;18973;48.580;8.912;2022-12-05T13:30:28;2.30;;;2.10;;
32533;SDS011;18973;48.580;8.912;2022-12-05T13:33:06;2.72;;;2.42;;
32533;SDS011;18973;48.580;8.912;2022-12-05T13:35:34;1.25;;;1.15;;
32533;SDS011;18973;48.580;8.912;2022-12-05T13:41:12;1.50;;;1.40;;
32533;SDS011;18973;48.580;8.912;2022-12-05T13:43:57;2.28;;;2.08;;
32533;SDS011;18973;48.580;8.912;2022-12-05T13:46:27;1.08;;;1.08;;
32533;SDS011;18973;48.580;8.912;2022-12-05T13:49:18;2.83;;;1.25;;
32533;SDS011;18973;48.580;8.912;2022-12-05T13:52:02;1.85;;;1.50;;
32533;SDS011;18973;48.580;8.912;2022-12-05T13:54:32;1.40;;;1.40;;
32533;SDS011;18973;48.580;8.912;2022-12-05T13:57:08;1.63;;;1.52;;
32533;SDS011;18973;48.580;8.912;2022-12-05T14:07:45;1.35;;;1.30;;
32533;SDS011;18973;48.580;8.912;2022-12-05T14:10:15;1.88;;;1.77;;
32533;SDS011;18973;48.580;8.912;2022-12-05T14:12:53;1.77;;;1.60;;
32533;SDS011;18973;48.580;8.912;2022-12-05T14:18:07;1.92;;;1.83;;
32533;SDS011;18973;48.580;8.912;2022-12-05T14:37:39;1.55;;;1.45;;
32533;SDS011;18973;48.580;8.912;2022-12-05T14:55:52;1.45;;;1.35;;
32533;SDS011;18973;48.580;8.912;2022-12-05T15:00:57;1.50;;;1.40;;
32533;SDS011;18973;48.580;8.912;2022-12-05T15:03:29;1.73;;;1.63;;
32533;SDS011;18973;48.580;8.912;2022-12-05T15:05:58;1.77;;;1.67;;
32533;SDS011;18973;48.580;8.912;2022-12-05T15:08:27;1.85;;;1.75;;
32533;SDS011;18973;48.580;8.912;2022-12-05T15:10:58;2.17;;;1.77;;
32533;SDS011;18973;48.580;8.912;2022-12-05T15:13:25;1.60;;;1.50;;
32533;SDS011;18973;48.580;8.912;2022-12-05T15:18:33;2.10;;;1.67;;
32533;SDS011;18973;48.580;8.912;2022-12-05T15:21:23;1.50;;;1.40;;
32533;SDS011;18973;48.580;8.912;2022-12-05T15:24:00;2.10;;;1.80;;
32533;SDS011;18973;48.580;8.912;2022-12-05T15:28:59;2.78;;;1.73;;
32533;SDS011;18973;48.580;8.912;2022-12-05T15:31:42;2.15;;;1.85;;
32533;SDS011;18973;48.580;8.912;2022-12-05T15:37:03;1.60;;;1.50;;
32533;SDS011;18973;48.580;8.912;2022-12-05T15:39:56;4.45;;;2.35;;
32533;SDS011;18973;48.580;8.912;2022-12-05T15:42:25;7.25;;;3.63;;
32533;SDS011;18973;48.580;8.912;2022-12-05T15:44:58;4.72;;;3.38;;
32533;SDS011;18973;48.580;8.912;2022-12-05T15:47:37;4.97;;;3.28;;
32533;SDS011;18973;48.580;8.912;2022-12-05T15:50:04;3.15;;;2.35;;
32533;SDS011;18973;48.580;8.912;2022-12-05T15:52:32;2.42;;;2.17;;
32533;SDS011;18973;48.580;8.912;2022-12-05T15:55:07;2.08;;;1.67;;
32533;SDS011;18973;48.580;8.912;2022-12-05T15:57:49;1.85;;;1.75;;
32533;SDS011;18973;48.580;8.912;2022-12-05T16:00:19;1.67;;;1.58;;
32533;SDS011;18973;48.580;8.912;2022-12-05T16:03:01;1.90;;;1.80;;
32533;SDS011;18973;48.580;8.912;2022-12-05T16:05:38;2.17;;;2.08;;
32533;SDS011;18973;48.580;8.912;2022-12-05T16:08:09;2.05;;;1.77;;
32533;SDS011;18973;48.580;8.912;2022-12-05T16:10:35;2.75;;;2.63;;
32533;SDS011;18973;48.580;8.912;2022-12-05T16:13:05;2.88;;;2.35;;
32533;SDS011;18973;48.580;8.912;2022-12-05T16:15:36;4.50;;;2.70;;
32533;SDS011;18973;48.580;8.912;2022-12-05T16:18:18;4.18;;;2.70;;
32533;SDS011;18973;48.580;8.912;2022-12-05T16:20:54;4.00;;;3.53;;
32533;SDS011;18973;48.580;8.912;2022-12-05T16:23:31;3.58;;;2.50;;
32533;SDS011;18973;48.580;8.912;2022-12-05T16:28:40;3.58;;;2.05;;
32533;SDS011;18973;48.580;8.912;2022-12-05T16:31:05;2.40;;;2.25;;
32533;SDS011;18973;48.580;8.912;2022-12-05T16:33:31;3.45;;;2.60;;
32533;SDS011;18973;48.580;8.912;2022-12-05T16:36:07;5.55;;;3.55;;
32533;SDS011;18973;48.580;8.912;2022-12-05T16:38:34;6.13;;;3.33;;
32533;SDS011;18973;48.580;8.912;2022-12-05T16:41:01;7.97;;;4.25;;
32533;SDS011;18973;48.580;8.912;2022-12-05T16:48:35;6.88;;;4.10;;
32533;SDS011;18973;48.580;8.912;2022-12-05T16:51:20;5.63;;;3.55;;
32533;SDS011;18973;48.580;8.912;2022-12-05T16:53:53;13.77;;;5.28;;
32533;SDS011;18973;48.580;8.912;2022-12-05T16:58:50;4.55;;;3.92;;
32533;SDS011;18973;48.580;8.912;2022-12-05T17:01:25;4.93;;;3.45;;
32533;SDS011;18973;48.580;8.912;2022-12-05T17:03:52;4.05;;;3.35;;
32533;SDS011;18973;48.580;8.912;2022-12-05T17:06:19;2.92;;;2.53;;
32533;SDS011;18973;48.580;8.912;2022-12-05T17:08:48;4.32;;;3.28;;
32533;SDS011;18973;48.580;8.912;2022-12-05T17:11:25;13.45;;;6.00;;
32533;SDS011;18973;48.580;8.912;2022-12-05T17:13:54;8.07;;;3.95;;
32533;SDS011;18973;48.580;8.912;2022-12-05T17:16:20;7.32;;;4.32;;
32533;SDS011;18973;48.580;8.912;2022-12-05T17:18:46;5.22;;;3.15;;
32533;SDS011;18973;48.580;8.912;2022-12-05T17:21:16;4.47;;;3.75;;
32533;SDS011;18973;48.580;8.912;2022-12-05T17:23:46;3.78;;;3.42;;
32533;SDS011;18973;48.580;8.912;2022-12-05T17:26:13;5.28;;;3.53;;
32533;SDS011;18973;48.580;8.912;2022-12-05T17:28:40;5.10;;;3.53;;
32533;SDS011;18973;48.580;8.912;2022-12-05T17:31:06;6.45;;;3.50;;
32533;SDS011;18973;48.580;8.912;2022-12-05T17:33:34;11.32;;;6.35;;
32533;SDS011;18973;48.580;8.912;2022-12-05T17:36:00;6.72;;;4.85;;
32533;SDS011;18973;48.580;8.912;2022-12-05T17:38:26;7.78;;;4.55;;
32533;SDS011;18973;48.580;8.912;2022-12-05T17:40:51;5.85;;;3.47;;
32533;SDS011;18973;48.580;8.912;2022-12-05T17:43:17;9.07;;;4.60;;
32533;SDS011;18973;48.580;8.912;2022-12-05T17:45:43;10.07;;;4.10;;
32533;SDS011;18973;48.580;8.912;2022-12-05T17:48:10;9.38;;;4.40;;
32533;SDS011;18973;48.580;8.912;2022-12-05T17:50:40;11.73;;;4.10;;
32533;SDS011;18973;48.580;8.912;2022-12-05T17:53:12;3.17;;;2.97;;
32533;SDS011;18973;48.580;8.912;2022-12-05T17:55:40;7.05;;;4.03;;
32533;SDS011;18973;48.580;8.912;2022-12-05T17:58:06;4.10;;;3.80;;
32533;SDS011;18973;48.580;8.912;2022-12-05T18:00:32;4.45;;;3.10;;
32533;SDS011;18973;48.580;8.912;2022-12-05T18:02:58;3.00;;;2.70;;
32533;SDS011;18973;48.580;8.912;2022-12-05T18:05:24;3.85;;;2.85;;
32533;SDS011;18973;48.580;8.912;2022-12-05T18:07:49;2.78;;;2.58;;
32533;SDS011;18973;48.580;8.912;2022-12-05T18:10:19;4.20;;;2.28;;
32533;SDS011;18973;48.580;8.912;2022-12-05T18:12:47;3.83;;;2.53;;
32533;SDS011;18973;48.580;8.912;2022-12-05T18:15:13;2.92;;;2.63;;